Главная страница
METAR-TAF:

METAR-TAF

Аэропорты :

Международный аэропорт имени Кеннета Каунды

Лусака, Замбия

широта: 15-19-51S, долгота: 028-27-09E, высота над уровнем моря: 1152 м

Текущие метеонаблюдения

Эта сводка был подготовлена 4 часа и 36 минут назад, в 17:00 UTC
Ветер 3 Узел от восточный
Температура 20°C
Влажность 94%
Давление 1020 hPa
Видимость 10 км и более
небольшая облачность , Кучево-дождевые.
Рассеянная облачность на высоте 9000 фута

METAR: FLKK 161700Z 08003KT 9999 FEW///CB BKN090 20/19 Q1020

Время: 23:36 (21:36 UTC)


TAF: отсутствует

Метеонаблюдения и прогнозы для более 4000 аэропортов (сводки METAR и TAF).

Имеющиеся станции представлены на карте желтыми и красными точками.

Чтобы увидеть название станции, наведите на нее мышь.

Затем щелкните, чтобы увидеть метеонаблюдения и метеопрогнозы.

Управление картой: чтобы увеличить масштаб, щелкните зеленые кнопки с черным крестиком; чтобы уменьшить масштаб, щелкните зеленую кнопку с тире; для просмотра соседних карт щелкайте зеленые стрелки.


METAR-TAF: